| time (UTC) | temp F | wind direction | speed MPH | gust MPH | rain 1hr in | rain 24hr in | rain mn in | humidity % | barometer mb |
| 20260906174403 | 79 | 168 | 1.0 | 3.0 | 0.00 | 0.00 | 0.00 | 68 | 1010.9 |
| 20260906173857 | 79 | 214 | 0.0 | 4.0 | 0.00 | 0.00 | 0.00 | 69 | 1011.0 |
| 20260906173353 | 78 | 10 | 2.0 | 7.0 | 0.00 | 0.00 | 0.00 | 66 | 1011.1 |
| 20260906172851 | 78 | 343 | 2.0 | 5.0 | 0.00 | 0.00 | 0.00 | 69 | 1011.3 |
| 20260906172343 | 77 | 132 | 2.0 | 5.0 | 0.00 | 0.00 | 0.00 | 69 | 1011.2 |
| 20260906171837 | 78 | 8 | 3.0 | 4.0 | 0.00 | 0.00 | 0.00 | 68 | 1011.3 |
| 20260906171332 | 77 | 342 | 3.0 | 5.0 | 0.00 | 0.00 | 0.00 | 68 | 1011.4 |
| 20260906171238 | 76 | 220 | 0.0 | 3.0 | 0.00 | 0.00 | 0.00 | 71 | 1011.4 |
| 20260906170827 | 76 | 220 | 0.0 | 3.0 | 0.00 | 0.00 | 0.00 | 71 | 1011.4 |
| 20260906170323 | 77 | 133 | 1.0 | 3.0 | 0.00 | 0.00 | 0.00 | 71 | 1011.4 |
| 20260906165820 | 77 | 301 | 3.0 | 5.0 | 0.00 | 0.00 | 0.00 | 69 | 1011.3 |
| 20260906165314 | 78 | 292 | 3.0 | 4.0 | 0.00 | 0.00 | 0.00 | 71 | 1011.3 |
| 20260906164813 | 76 | 341 | 2.0 | 5.0 | 0.00 | 0.00 | 0.00 | 69 | 1011.3 |
| 20260906164309 | 77 | 300 | 2.0 | 5.0 | 0.00 | 0.00 | 0.00 | 71 | 1011.5 |
| 20260906163804 | 78 | 304 | 3.0 | 6.0 | 0.00 | 0.00 | 0.00 | 71 | 1011.4 |
| 20260906163301 | 78 | 323 | 3.0 | 6.0 | 0.00 | 0.00 | 0.00 | 71 | 1011.3 |
| 20260906162757 | 78 | 89 | 0.0 | 4.0 | 0.00 | 0.00 | 0.00 | 73 | 1011.5 |
| 20260906162659 | 78 | 315 | 3.0 | 5.0 | 0.00 | 0.00 | 0.00 | 70 | 1011.3 |
| 20260906162251 | 78 | 315 | 3.0 | 5.0 | 0.00 | 0.00 | 0.00 | 70 | 1011.3 |
| 20260906161746 | 78 | 318 | 3.0 | 3.0 | 0.00 | 0.00 | 0.00 | 72 | 1011.2 |
| 20260906161245 | 77 | 254 | 1.0 | 4.0 | 0.00 | 0.00 | 0.00 | 72 | 1011.4 |
| 20260906160744 | 77 | 101 | 2.0 | 4.0 | 0.00 | 0.00 | 0.00 | 71 | 1011.5 |
| 20260906160652 | 77 | 316 | 3.0 | 4.0 | 0.00 | 0.00 | 0.00 | 74 | 1011.2 |
| 20260906160244 | 77 | 316 | 3.0 | 4.0 | 0.00 | 0.00 | 0.00 | 74 | 1011.2 |
| 20260906160151 | 77 | 279 | 1.0 | 5.0 | 0.00 | 0.00 | 0.00 | 74 | 1011.3 |
| 20260906155741 | 77 | 279 | 1.0 | 5.0 | 0.00 | 0.00 | 0.00 | 74 | 1011.3 |
| 20260906155236 | 77 | 353 | 2.0 | 6.0 | 0.00 | 0.00 | 0.00 | 74 | 1011.4 |
| 20260906154732 | 77 | 325 | 6.0 | 6.0 | 0.00 | 0.00 | 0.00 | 74 | 1011.4 |
| 20260906154227 | 77 | 292 | 4.0 | 4.0 | 0.00 | 0.00 | 0.00 | 72 | 1011.2 |
| 20260906153725 | 77 | 242 | 2.0 | 3.0 | 0.00 | 0.00 | 0.00 | 74 | 1011.4 |
| 20260906153219 | 77 | 278 | 2.0 | 4.0 | 0.00 | 0.00 | 0.00 | 74 | 1011.2 |
| 20260906152709 | 77 | 303 | 1.0 | 3.0 | 0.00 | 0.00 | 0.00 | 73 | 1011.5 |
| 20260906152203 | 76 | 38 | 0.0 | 4.0 | 0.00 | 0.00 | 0.00 | 75 | 1011.6 |
| 20260906151658 | 77 | 176 | 1.0 | 3.0 | 0.00 | 0.00 | 0.00 | 75 | 1011.5 |
| 20260906151154 | 76 | 346 | 2.0 | 5.0 | 0.00 | 0.00 | 0.00 | 74 | 1011.5 |
| 20260906150649 | 76 | 309 | 2.0 | 4.0 | 0.00 | 0.00 | 0.00 | 74 | 1011.3 |
| 20260906150555 | 76 | 317 | 1.0 | 5.0 | 0.00 | 0.00 | 0.00 | 73 | 1011.3 |
| 20260906150144 | 76 | 317 | 1.0 | 5.0 | 0.00 | 0.00 | 0.00 | 73 | 1011.3 |
| 20260906145643 | 76 | 319 | 2.0 | 5.0 | 0.00 | 0.00 | 0.00 | 72 | 1011.3 |
| 20260906145137 | 76 | 322 | 0.0 | 3.0 | 0.00 | 0.00 | 0.00 | 76 | 1011.2 |
| 20260906145045 | 76 | 339 | 3.0 | 4.0 | 0.00 | 0.00 | 0.00 | 74 | 1011.3 |
| 20260906144632 | 76 | 339 | 3.0 | 4.0 | 0.00 | 0.00 | 0.00 | 74 | 1011.3 |
| 20260906144538 | 75 | 228 | 0.0 | 4.0 | 0.00 | 0.00 | 0.00 | 76 | 1011.1 |
| 20260906144127 | 75 | 228 | 0.0 | 4.0 | 0.00 | 0.00 | 0.00 | 76 | 1011.1 |
| 20260906143626 | 75 | 19 | 2.0 | 4.0 | 0.00 | 0.00 | 0.00 | 75 | 1011.1 |
| 20260906143124 | 76 | 269 | 0.0 | 3.0 | 0.00 | 0.00 | 0.00 | 76 | 1011.2 |
| 20260906143031 | 75 | 207 | 2.0 | 5.0 | 0.00 | 0.00 | 0.00 | 75 | 1010.9 |
| 20260906142623 | 75 | 207 | 2.0 | 5.0 | 0.00 | 0.00 | 0.00 | 75 | 1010.9 |
| 20260906142118 | 75 | 302 | 4.0 | 4.0 | 0.00 | 0.00 | 0.00 | 76 | 1010.9 |
| 20260906141617 | 75 | 289 | 1.0 | 5.0 | 0.00 | 0.00 | 0.00 | 76 | 1010.9 |
| 20260906141113 | 75 | 342 | 3.0 | 4.0 | 0.00 | 0.00 | 0.00 | 76 | 1010.7 |
| 20260906140612 | 74 | 7 | 2.0 | 5.0 | 0.00 | 0.00 | 0.00 | 76 | 1010.8 |
| 20260906140107 | 74 | 280 | 2.0 | 5.0 | 0.00 | 0.00 | 0.00 | 76 | 1010.8 |
| 20260906140013 | 73 | 30 | 2.0 | 4.0 | 0.00 | 0.00 | 0.00 | 76 | 1010.8 |
| 20260906135604 | 73 | 30 | 2.0 | 4.0 | 0.00 | 0.00 | 0.00 | 76 | 1010.8 |
| 20260906135508 | 73 | 333 | 2.0 | 4.0 | 0.00 | 0.00 | 0.00 | 77 | 1010.7 |
| 20260906135100 | 73 | 333 | 2.0 | 4.0 | 0.00 | 0.00 | 0.00 | 77 | 1010.7 |
| 20260906134555 | 73 | 223 | 0.0 | 3.0 | 0.00 | 0.00 | 0.00 | 78 | 1010.6 |
| 20260906134054 | 73 | 295 | 0.0 | 5.0 | 0.00 | 0.00 | 0.00 | 80 | 1010.6 |
| 20260906133550 | 74 | 24 | 0.0 | 3.0 | 0.00 | 0.00 | 0.00 | 82 | 1010.8 |
| 20260906133046 | 74 | 300 | 1.0 | 2.0 | 0.00 | 0.00 | 0.00 | 84 | 1010.5 |
| 20260906132950 | 73 | 357 | 1.0 | 3.0 | 0.00 | 0.00 | 0.00 | 85 | 1010.6 |
| 20260906132541 | 73 | 357 | 1.0 | 3.0 | 0.00 | 0.00 | 0.00 | 85 | 1010.6 |
| 20260906132036 | 73 | 314 | 2.0 | 3.0 | 0.00 | 0.00 | 0.00 | 85 | 1010.5 |
| 20260906131532 | 73 | 338 | 2.0 | 4.0 | 0.00 | 0.00 | 0.00 | 86 | 1010.4 |
| 20260906131438 | 73 | 333 | 2.0 | 3.0 | 0.00 | 0.00 | 0.00 | 86 | 1010.6 |
| 20260906131027 | 73 | 333 | 2.0 | 3.0 | 0.00 | 0.00 | 0.00 | 86 | 1010.6 |
| 20260906130526 | 73 | 329 | 3.0 | 3.0 | 0.00 | 0.00 | 0.00 | 86 | 1010.5 |
| 20260906130432 | 72 | 334 | 2.0 | 4.0 | 0.00 | 0.00 | 0.00 | 86 | 1010.6 |
| 20260906130022 | 72 | 334 | 2.0 | 4.0 | 0.00 | 0.00 | 0.00 | 86 | 1010.6 |
| 20260906125519 | 72 | 337 | 1.0 | 4.0 | 0.00 | 0.00 | 0.00 | 87 | 1010.4 |
| 20260906125013 | 71 | 3 | 1.0 | 2.0 | 0.00 | 0.00 | 0.00 | 88 | 1010.5 |
| 20260906124509 | 71 | 11 | 2.0 | 3.0 | 0.00 | 0.00 | 0.00 | 88 | 1010.5 |
| 20260906124410 | 71 | 327 | 2.0 | 3.0 | 0.00 | 0.00 | 0.00 | 89 | 1010.6 |
| 20260906124003 | 71 | 327 | 2.0 | 3.0 | 0.00 | 0.00 | 0.00 | 89 | 1010.6 |
| 20260906123456 | 70 | 349 | 2.0 | 3.0 | 0.00 | 0.00 | 0.00 | 89 | 1010.5 |
| 20260906122951 | 70 | 356 | 2.0 | 3.0 | 0.00 | 0.00 | 0.00 | 90 | 1010.2 |
| 20260906122913 | 69 | 327 | 2.0 | 2.0 | 0.00 | 0.00 | 0.00 | 92 | 1010.4 |
| 20260906122446 | 69 | 327 | 2.0 | 2.0 | 0.00 | 0.00 | 0.00 | 92 | 1010.4 |
| 20260906122347 | 69 | 314 | 2.0 | 2.0 | 0.00 | 0.00 | 0.00 | 94 | 1010.4 |
| 20260906121942 | 69 | 314 | 2.0 | 2.0 | 0.00 | 0.00 | 0.00 | 94 | 1010.4 |
| 20260906121438 | 68 | 9 | 1.0 | 2.0 | 0.00 | 0.00 | 0.00 | 94 | 1010.2 |
| 20260906120935 | 68 | 335 | 0.0 | 2.0 | 0.00 | 0.00 | 0.00 | 96 | 1010.2 |
| 20260906120840 | 67 | 333 | 1.0 | 2.0 | 0.00 | 0.00 | 0.00 | 97 | 1010.1 |
| 20260906120430 | 67 | 333 | 1.0 | 2.0 | 0.00 | 0.00 | 0.00 | 97 | 1010.1 |
| 20260906120335 | 67 | 351 | 1.0 | 2.0 | 0.00 | 0.00 | 0.00 | 98 | 1010.2 |
| 20260906115925 | 67 | 351 | 1.0 | 2.0 | 0.00 | 0.00 | 0.00 | 98 | 1010.2 |
| 20260906115421 | 67 | 15 | 0.0 | 3.0 | 0.00 | 0.00 | 0.00 | 99 | 1010.3 |
| 20260906114915 | 66 | 348 | 0.0 | 2.0 | 0.00 | 0.00 | 0.00 | 99 | 1010.0 |
| 20260906114410 | 66 | 127 | 0.0 | 2.0 | 0.00 | 0.00 | 0.00 | 99 | 1010.2 |
| 20260906113906 | 66 | 321 | 0.0 | 1.0 | 0.00 | 0.00 | 0.00 | 99 | 1010.2 |
| 20260906113404 | 66 | 321 | 2.0 | 2.0 | 0.00 | 0.00 | 0.00 | 99 | 1010.1 |
| 20260906113312 | 65 | 346 | 0.0 | 2.0 | 0.00 | 0.00 | 0.00 | 99 | 1010.0 |
| 20260906112900 | 65 | 346 | 0.0 | 2.0 | 0.00 | 0.00 | 0.00 | 99 | 1010.0 |
| 20260906112355 | 65 | 6 | 0.0 | 2.0 | 0.00 | 0.00 | 0.00 | 99 | 1009.7 |
| 20260906112301 | 65 | 61 | 1.0 | 2.0 | 0.00 | 0.00 | 0.00 | 99 | 1010.2 |
| 20260906111850 | 65 | 61 | 1.0 | 2.0 | 0.00 | 0.00 | 0.00 | 99 | 1010.2 |
| 20260906111350 | 64 | 308 | 0.0 | 2.0 | 0.00 | 0.00 | 0.00 | 99 | 1009.8 |
| 20260906111255 | 64 | 149 | 0.0 | 1.0 | 0.00 | 0.00 | 0.00 | 99 | 1009.6 |
| 20260906110844 | 64 | 149 | 0.0 | 1.0 | 0.00 | 0.00 | 0.00 | 99 | 1009.6 |
| 20260906110340 | 64 | 37 | 0.0 | 1.0 | 0.00 | 0.00 | 0.00 | 99 | 1009.8 |
| 20260906105839 | 64 | 348 | 0.0 | 1.0 | 0.00 | 0.00 | 0.00 | 99 | 1009.6 |
| 20260906105335 | 64 | 6 | 0.0 | 2.0 | 0.00 | 0.00 | 0.00 | 99 | 1009.5 |
| 20260906105243 | 64 | 103 | 0.0 | 1.0 | 0.00 | 0.00 | 0.00 | 99 | 1009.5 |
| 20260906104831 | 64 | 103 | 0.0 | 1.0 | 0.00 | 0.00 | 0.00 | 99 | 1009.5 |
| 20260906104329 | 64 | 352 | 0.0 | 2.0 | 0.00 | 0.00 | 0.00 | 99 | 1009.4 |
| 20260906104232 | 64 | 340 | 0.0 | 1.0 | 0.00 | 0.00 | 0.00 | 99 | 1009.4 |
| 20260906103828 | 64 | 340 | 0.0 | 1.0 | 0.00 | 0.00 | 0.00 | 99 | 1009.4 |
| 20260906103326 | 64 | 293 | 0.0 | 0.0 | 0.00 | 0.00 | 0.00 | 99 | 1009.3 |
| 20260906102822 | 64 | 336 | 0.0 | 1.0 | 0.00 | 0.00 | 0.00 | 99 | 1009.3 |
| 20260906102321 | 64 | 359 | 1.0 | 2.0 | 0.00 | 0.00 | 0.00 | 99 | 1009.4 |
| 20260906101817 | 64 | 335 | 0.0 | 1.0 | 0.00 | 0.00 | 0.00 | 99 | 1009.1 |
| 20260906101719 | 64 | 339 | 0.0 | 1.0 | 0.00 | 0.00 | 0.00 | 99 | 1009.2 |
| 20260906101312 | 64 | 339 | 0.0 | 1.0 | 0.00 | 0.00 | 0.00 | 99 | 1009.2 |
| 20260906101219 | 64 | 311 | 1.0 | 2.0 | 0.00 | 0.00 | 0.00 | 99 | 1008.9 |
| 20260906100808 | 64 | 311 | 1.0 | 2.0 | 0.00 | 0.00 | 0.00 | 99 | 1008.9 |
| 20260906100306 | 64 | 222 | 0.0 | 0.0 | 0.00 | 0.00 | 0.00 | 99 | 1009.0 |
| 20260906100213 | 64 | 17 | 0.0 | 0.0 | 0.00 | 0.00 | 0.00 | 99 | 1009.0 |
| 20260906095802 | 64 | 17 | 0.0 | 0.0 | 0.00 | 0.00 | 0.00 | 99 | 1009.0 |
| 20260906095257 | 64 | 285 | 0.0 | 1.0 | 0.00 | 0.00 | 0.00 | 99 | 1008.7 |
| 20260906095202 | 64 | 217 | 0.0 | 1.0 | 0.00 | 0.00 | 0.00 | 99 | 1008.7 |
| 20260906094756 | 64 | 217 | 0.0 | 1.0 | 0.00 | 0.00 | 0.00 | 99 | 1008.7 |
| 20260906094656 | 64 | 320 | 0.0 | 1.0 | 0.00 | 0.00 | 0.00 | 99 | 1008.9 |
| 20260906094251 | 64 | 320 | 0.0 | 1.0 | 0.00 | 0.00 | 0.00 | 99 | 1008.9 |
| 20260906094156 | 64 | 346 | 0.0 | 1.0 | 0.00 | 0.00 | 0.00 | 98 | 1008.8 |
| 20260906093748 | 64 | 346 | 0.0 | 1.0 | 0.00 | 0.00 | 0.00 | 98 | 1008.8 |
| 20260906093243 | 64 | 44 | 0.0 | 0.0 | 0.00 | 0.00 | 0.00 | 98 | 1008.6 |
| 20260906092738 | 64 | 103 | 0.0 | 1.0 | 0.00 | 0.00 | 0.00 | 98 | 1008.7 |
| 20260906092238 | 64 | 37 | 0.0 | 1.0 | 0.00 | 0.00 | 0.00 | 98 | 1008.6 |
| 20260906091734 | 64 | 315 | 0.0 | 1.0 | 0.00 | 0.00 | 0.00 | 98 | 1008.8 |
| 20260906091230 | 64 | 301 | 0.0 | 1.0 | 0.00 | 0.00 | 0.00 | 98 | 1008.5 |
| 20260906090726 | 64 | 326 | 0.0 | 1.0 | 0.00 | 0.00 | 0.00 | 98 | 1008.5 |
| 20260906090225 | 64 | 293 | 0.0 | 2.0 | 0.00 | 0.00 | 0.00 | 98 | 1008.5 |
| 20260906085724 | 64 | 248 | 0.0 | 1.0 | 0.00 | 0.00 | 0.00 | 98 | 1008.3 |
| 20260906085634 | 64 | 299 | 0.0 | 1.0 | 0.00 | 0.00 | 0.00 | 98 | 1008.3 |
| 20260906085223 | 64 | 299 | 0.0 | 1.0 | 0.00 | 0.00 | 0.00 | 98 | 1008.3 |
| 20260906085128 | 64 | 269 | 0.0 | 1.0 | 0.00 | 0.00 | 0.00 | 98 | 1008.2 |
| 20260906084718 | 64 | 269 | 0.0 | 1.0 | 0.00 | 0.00 | 0.00 | 98 | 1008.2 |
| 20260906084212 | 65 | 202 | 0.0 | 1.0 | 0.00 | 0.00 | 0.00 | 98 | 1008.3 |
| 20260906084118 | 65 | 130 | 0.0 | 1.0 | 0.00 | 0.00 | 0.00 | 98 | 1008.3 |
| 20260906083708 | 65 | 130 | 0.0 | 1.0 | 0.00 | 0.00 | 0.00 | 98 | 1008.3 |
| 20260906083158 | 65 | 301 | 0.0 | 1.0 | 0.00 | 0.00 | 0.00 | 98 | 1008.0 |
| 20260906083101 | 65 | 269 | 0.0 | 1.0 | 0.00 | 0.00 | 0.00 | 98 | 1008.2 |
| 20260906082652 | 65 | 269 | 0.0 | 1.0 | 0.00 | 0.00 | 0.00 | 98 | 1008.2 |
| 20260906082148 | 65 | 315 | 0.0 | 3.0 | 0.00 | 0.00 | 0.00 | 98 | 1008.0 |
| 20260906081643 | 65 | 284 | 1.0 | 2.0 | 0.00 | 0.00 | 0.00 | 98 | 1008.0 |
| 20260906081138 | 65 | 230 | 0.0 | 1.0 | 0.00 | 0.00 | 0.00 | 98 | 1008.1 |
| 20260906080635 | 65 | 7 | 0.0 | 0.0 | 0.00 | 0.00 | 0.00 | 98 | 1008.1 |
| 20260906080534 | 65 | 217 | 0.0 | 1.0 | 0.00 | 0.00 | 0.00 | 98 | 1008.3 |
| 20260906080131 | 65 | 217 | 0.0 | 1.0 | 0.00 | 0.00 | 0.00 | 98 | 1008.3 |
| 20260906075630 | 65 | 313 | 0.0 | 2.0 | 0.00 | 0.00 | 0.00 | 98 | 1008.4 |
| 20260906075125 | 65 | 315 | 2.0 | 2.0 | 0.00 | 0.00 | 0.00 | 98 | 1008.3 |
| 20260906074621 | 65 | 242 | 0.0 | 1.0 | 0.00 | 0.00 | 0.00 | 98 | 1008.1 |
| 20260906074119 | 65 | 44 | 0.0 | 0.0 | 0.00 | 0.00 | 0.00 | 98 | 1007.9 |
| 20260906073614 | 65 | 224 | 0.0 | 2.0 | 0.00 | 0.00 | 0.00 | 98 | 1008.1 |
| 20260906073521 | 66 | 212 | 0.0 | 2.0 | 0.00 | 0.00 | 0.00 | 98 | 1008.3 |
| 20260906073110 | 66 | 212 | 0.0 | 2.0 | 0.00 | 0.00 | 0.00 | 98 | 1008.3 |
| 20260906073016 | 66 | 304 | 0.0 | 2.0 | 0.00 | 0.00 | 0.00 | 98 | 1008.3 |
| 20260906072604 | 66 | 304 | 0.0 | 2.0 | 0.00 | 0.00 | 0.00 | 98 | 1008.3 |
| 20260906072510 | 66 | 309 | 3.0 | 3.0 | 0.00 | 0.00 | 0.00 | 98 | 1008.0 |
| 20260906072101 | 66 | 309 | 3.0 | 3.0 | 0.00 | 0.00 | 0.00 | 98 | 1008.0 |
| 20260906071557 | 66 | 310 | 0.0 | 1.0 | 0.00 | 0.00 | 0.00 | 98 | 1007.9 |
| 20260906071051 | 66 | 334 | 0.0 | 2.0 | 0.00 | 0.00 | 0.00 | 98 | 1008.0 |
| 20260906071000 | 66 | 326 | 0.0 | 1.0 | 0.00 | 0.00 | 0.00 | 98 | 1008.0 |
| 20260906070548 | 66 | 326 | 0.0 | 1.0 | 0.00 | 0.00 | 0.00 | 98 | 1008.0 |
| 20260906070043 | 66 | 256 | 0.0 | 1.0 | 0.00 | 0.00 | 0.00 | 98 | 1007.9 |
| 20260906065952 | 66 | 325 | 0.0 | 2.0 | 0.00 | 0.00 | 0.00 | 98 | 1007.9 |
| 20260906065543 | 66 | 325 | 0.0 | 2.0 | 0.00 | 0.00 | 0.00 | 98 | 1007.9 |
| 20260906065039 | 66 | 39 | 0.0 | 2.0 | 0.00 | 0.00 | 0.00 | 98 | 1007.9 |
| 20260906064534 | 66 | 37 | 0.0 | 1.0 | 0.00 | 0.00 | 0.00 | 98 | 1008.1 |
| 20260906064029 | 66 | 298 | 0.0 | 2.0 | 0.00 | 0.00 | 0.00 | 98 | 1008.1 |
| 20260906063935 | 66 | 348 | 0.0 | 1.0 | 0.00 | 0.00 | 0.00 | 98 | 1008.0 |
| 20260906063524 | 66 | 348 | 0.0 | 1.0 | 0.00 | 0.00 | 0.00 | 98 | 1008.0 |
| 20260906063430 | 66 | 205 | 0.0 | 2.0 | 0.00 | 0.00 | 0.00 | 98 | 1008.0 |
| 20260906063020 | 66 | 205 | 0.0 | 2.0 | 0.00 | 0.00 | 0.00 | 98 | 1008.0 |
| 20260906062515 | 67 | 280 | 2.0 | 3.0 | 0.00 | 0.00 | 0.00 | 98 | 1008.0 |
| 20260906062010 | 67 | 325 | 0.0 | 2.0 | 0.00 | 0.00 | 0.00 | 98 | 1007.8 |
| 20260906061506 | 67 | 290 | 0.0 | 1.0 | 0.00 | 0.00 | 0.00 | 98 | 1008.1 |
| 20260906061408 | 67 | 329 | 0.0 | 1.0 | 0.00 | 0.00 | 0.00 | 98 | 1008.2 |
| 20260906061000 | 67 | 329 | 0.0 | 1.0 | 0.00 | 0.00 | 0.00 | 98 | 1008.2 |
| 20260906060908 | 67 | 261 | 0.0 | 2.0 | 0.00 | 0.00 | 0.00 | 98 | 1008.2 |
| 20260906060456 | 67 | 261 | 0.0 | 2.0 | 0.00 | 0.00 | 0.00 | 98 | 1008.2 |
| 20260906055953 | 67 | 333 | 0.0 | 2.0 | 0.00 | 0.00 | 0.00 | 98 | 1008.3 |
| 20260906055857 | 67 | 319 | 0.0 | 2.0 | 0.00 | 0.00 | 0.00 | 98 | 1007.9 |
| 20260906055448 | 67 | 319 | 0.0 | 2.0 | 0.00 | 0.00 | 0.00 | 98 | 1007.9 |
| 20260906054943 | 67 | 330 | 0.0 | 2.0 | 0.00 | 0.00 | 0.00 | 98 | 1008.1 |
| 20260906054438 | 68 | 27 | 0.0 | 2.0 | 0.00 | 0.00 | 0.00 | 98 | 1008.3 |
| 20260906053934 | 67 | 294 | 0.0 | 2.0 | 0.00 | 0.00 | 0.00 | 98 | 1008.2 |
| 20260906053430 | 68 | 272 | 0.0 | 2.0 | 0.00 | 0.00 | 0.00 | 98 | 1008.2 |
| 20260906052925 | 68 | 313 | 0.0 | 2.0 | 0.00 | 0.00 | 0.00 | 98 | 1008.3 |
| 20260906052421 | 68 | 321 | 0.0 | 1.0 | 0.00 | 0.00 | 0.00 | 98 | 1008.0 |
| 20260906051918 | 68 | 357 | 0.0 | 2.0 | 0.00 | 0.00 | 0.00 | 98 | 1008.3 |
| 20260906051818 | 68 | 220 | 0.0 | 3.0 | 0.00 | 0.00 | 0.00 | 98 | 1008.6 |
| 20260906051413 | 68 | 220 | 0.0 | 3.0 | 0.00 | 0.00 | 0.00 | 98 | 1008.6 |
| 20260906050908 | 68 | 37 | 0.0 | 1.0 | 0.00 | 0.00 | 0.00 | 97 | 1008.5 |
| 20260906050403 | 68 | 279 | 0.0 | 1.0 | 0.00 | 0.00 | 0.00 | 97 | 1008.7 |
| 20260906050312 | 68 | 298 | 0.0 | 1.0 | 0.00 | 0.00 | 0.00 | 97 | 1008.6 |
| 20260906045902 | 68 | 298 | 0.0 | 1.0 | 0.00 | 0.00 | 0.00 | 97 | 1008.6 |
| 20260906045811 | 68 | 283 | 0.0 | 2.0 | 0.00 | 0.00 | 0.00 | 97 | 1008.6 |
| 20260906045400 | 68 | 283 | 0.0 | 2.0 | 0.00 | 0.00 | 0.00 | 97 | 1008.6 |
| 20260906044857 | 68 | 324 | 1.0 | 2.0 | 0.00 | 0.00 | 0.00 | 97 | 1008.5 |
| 20260906044351 | 68 | 49 | 0.0 | 2.0 | 0.00 | 0.00 | 0.00 | 97 | 1008.5 |
| 20260906043847 | 68 | 348 | 0.0 | 2.0 | 0.00 | 0.00 | 0.00 | 97 | 1008.4 |
| 20260906043754 | 68 | 319 | 1.0 | 1.0 | 0.00 | 0.00 | 0.00 | 97 | 1008.4 |
| 20260906043343 | 68 | 319 | 1.0 | 1.0 | 0.00 | 0.00 | 0.00 | 97 | 1008.4 |
| 20260906042838 | 68 | 269 | 0.0 | 1.0 | 0.00 | 0.00 | 0.00 | 97 | 1008.6 |
| 20260906042748 | 68 | 335 | 0.0 | 1.0 | 0.00 | 0.00 | 0.00 | 97 | 1008.6 |
| 20260906042337 | 68 | 335 | 0.0 | 1.0 | 0.00 | 0.00 | 0.00 | 97 | 1008.6 |
| 20260906041832 | 69 | 291 | 0.0 | 2.0 | 0.00 | 0.00 | 0.00 | 97 | 1008.5 |
| 20260906041737 | 68 | 241 | 0.0 | 2.0 | 0.00 | 0.00 | 0.00 | 97 | 1008.6 |
| 20260906041328 | 68 | 241 | 0.0 | 2.0 | 0.00 | 0.00 | 0.00 | 97 | 1008.6 |
| 20260906040828 | 69 | 251 | 0.0 | 2.0 | 0.00 | 0.00 | 0.00 | 97 | 1008.6 |
| 20260906040323 | 69 | 4 | 0.0 | 2.0 | 0.00 | 0.00 | 0.00 | 96 | 1008.5 |
| 20260906040225 | 69 | 331 | 0.0 | 3.0 | 0.00 | 0.00 | 0.00 | 96 | 1008.5 |
| 20260906035819 | 69 | 331 | 0.0 | 3.0 | 0.00 | 0.00 | 0.00 | 96 | 1008.5 |
| 20260906035314 | 69 | 261 | 2.0 | 4.0 | 0.00 | 0.00 | 0.00 | 97 | 1008.6 |
| 20260906034809 | 69 | 342 | 0.0 | 2.0 | 0.00 | 0.00 | 0.00 | 97 | 1008.4 |
| 20260906034719 | 69 | 292 | 1.0 | 2.0 | 0.00 | 0.00 | 0.00 | 97 | 1008.6 |
| 20260906034309 | 69 | 292 | 1.0 | 2.0 | 0.00 | 0.00 | 0.00 | 97 | 1008.6 |
| 20260906033805 | 69 | 246 | 0.0 | 2.0 | 0.00 | 0.00 | 0.00 | 97 | 1008.7 |
| 20260906033304 | 69 | 217 | 0.0 | 3.0 | 0.00 | 0.00 | 0.00 | 97 | 1008.6 |
| 20260906033212 | 69 | 57 | 0.0 | 2.0 | 0.00 | 0.00 | 0.00 | 96 | 1008.4 |
| 20260906032801 | 69 | 57 | 0.0 | 2.0 | 0.00 | 0.00 | 0.00 | 96 | 1008.4 |
| 20260906032256 | 69 | 283 | 1.0 | 2.0 | 0.00 | 0.00 | 0.00 | 96 | 1008.7 |
| 20260906032201 | 69 | 264 | 0.0 | 2.0 | 0.00 | 0.00 | 0.00 | 96 | 1009.0 |
| 20260906031751 | 69 | 264 | 0.0 | 2.0 | 0.00 | 0.00 | 0.00 | 96 | 1009.0 |
| 20260906031248 | 70 | 295 | 0.0 | 3.0 | 0.00 | 0.00 | 0.00 | 96 | 1008.7 |
| 20260906030746 | 69 | 287 | 0.0 | 2.0 | 0.00 | 0.00 | 0.00 | 96 | 1008.6 |
| 20260906030242 | 70 | 257 | 0.0 | 2.0 | 0.00 | 0.00 | 0.00 | 96 | 1008.7 |
| 20260906025741 | 70 | 230 | 1.0 | 2.0 | 0.00 | 0.00 | 0.00 | 96 | 1008.6 |
| 20260906025236 | 70 | 27 | 0.0 | 2.0 | 0.00 | 0.00 | 0.00 | 96 | 1008.5 |
| 20260906025143 | 70 | 277 | 1.0 | 1.0 | 0.00 | 0.00 | 0.00 | 95 | 1008.6 |
| 20260906024735 | 70 | 277 | 1.0 | 1.0 | 0.00 | 0.00 | 0.00 | 95 | 1008.6 |
| 20260906024234 | 70 | 183 | 0.0 | 1.0 | 0.00 | 0.00 | 0.00 | 95 | 1008.5 |
| 20260906023730 | 70 | 211 | 1.0 | 2.0 | 0.00 | 0.00 | 0.00 | 95 | 1008.7 |
| 20260906023225 | 71 | 219 | 1.0 | 3.0 | 0.00 | 0.00 | 0.00 | 95 | 1008.7 |
| 20260906022721 | 71 | 155 | 0.0 | 2.0 | 0.00 | 0.00 | 0.00 | 95 | 1008.7 |
| 20260906022216 | 71 | 201 | 1.0 | 1.0 | 0.00 | 0.00 | 0.00 | 95 | 1008.7 |
| 20260906021712 | 71 | 350 | 0.0 | 2.0 | 0.00 | 0.00 | 0.00 | 94 | 1008.7 |
| 20260906021620 | 71 | 6 | 0.0 | 1.0 | 0.00 | 0.00 | 0.00 | 94 | 1008.5 |
| 20260906021210 | 71 | 6 | 0.0 | 1.0 | 0.00 | 0.00 | 0.00 | 94 | 1008.5 |
| 20260906021114 | 71 | 338 | 0.0 | 2.0 | 0.00 | 0.00 | 0.00 | 94 | 1008.5 |
| 20260906020705 | 71 | 338 | 0.0 | 2.0 | 0.00 | 0.00 | 0.00 | 94 | 1008.5 |
| 20260906020159 | 72 | 213 | 0.0 | 2.0 | 0.00 | 0.00 | 0.00 | 94 | 1008.7 |
| 20260906015654 | 72 | 339 | 0.0 | 2.0 | 0.00 | 0.00 | 0.00 | 94 | 1008.7 |
| 20260906015607 | 72 | 315 | 0.0 | 3.0 | 0.00 | 0.00 | 0.00 | 94 | 1008.6 |
| 20260906015152 | 72 | 315 | 0.0 | 3.0 | 0.00 | 0.00 | 0.00 | 94 | 1008.6 |
| 20260906015057 | 72 | 241 | 0.0 | 2.0 | 0.00 | 0.00 | 0.00 | 93 | 1008.4 |
| 20260906014647 | 72 | 241 | 0.0 | 2.0 | 0.00 | 0.00 | 0.00 | 93 | 1008.4 |
| 20260906014143 | 72 | 290 | 1.0 | 2.0 | 0.00 | 0.00 | 0.00 | 93 | 1008.5 |
| 20260906014050 | 72 | 132 | 0.0 | 1.0 | 0.00 | 0.00 | 0.00 | 93 | 1008.3 |
| 20260906013639 | 72 | 132 | 0.0 | 1.0 | 0.00 | 0.00 | 0.00 | 93 | 1008.3 |
| 20260906013134 | 73 | 331 | 0.0 | 1.0 | 0.00 | 0.00 | 0.00 | 92 | 1008.2 |
| 20260906012634 | 73 | 231 | 0.0 | 2.0 | 0.00 | 0.00 | 0.00 | 92 | 1008.3 |
| 20260906012129 | 73 | 306 | 2.0 | 3.0 | 0.00 | 0.00 | 0.00 | 92 | 1008.1 |
| 20260906012036 | 72 | 180 | 0.0 | 2.0 | 0.00 | 0.00 | 0.00 | 93 | 1008.1 |
| 20260906011624 | 72 | 180 | 0.0 | 2.0 | 0.00 | 0.00 | 0.00 | 93 | 1008.1 |
| 20260906011528 | 72 | 267 | 0.0 | 2.0 | 0.00 | 0.00 | 0.00 | 93 | 1008.1 |
| 20260906011118 | 72 | 267 | 0.0 | 2.0 | 0.00 | 0.00 | 0.00 | 93 | 1008.1 |
| 20260906010614 | 73 | 258 | 1.0 | 3.0 | 0.00 | 0.00 | 0.00 | 92 | 1008.1 |
| 20260906010110 | 73 | 216 | 0.0 | 2.0 | 0.00 | 0.00 | 0.00 | 92 | 1008.0 |
| 20260906005604 | 73 | 261 | 1.0 | 3.0 | 0.00 | 0.00 | 0.00 | 90 | 1007.9 |
| 20260906005511 | 73 | 305 | 3.0 | 4.0 | 0.00 | 0.00 | 0.00 | 91 | 1007.7 |
| 20260906005103 | 73 | 305 | 3.0 | 4.0 | 0.00 | 0.00 | 0.00 | 91 | 1007.7 |
| 20260906004602 | 73 | 225 | 1.0 | 2.0 | 0.00 | 0.00 | 0.00 | 91 | 1007.4 |
| 20260906004057 | 73 | 312 | 0.0 | 2.0 | 0.00 | 0.00 | 0.00 | 91 | 1007.8 |
| 20260906003552 | 74 | 321 | 0.0 | 2.0 | 0.00 | 0.00 | 0.00 | 91 | 1007.5 |
| 20260906003459 | 73 | 304 | 0.0 | 2.0 | 0.00 | 0.00 | 0.00 | 89 | 1007.4 |
| 20260906003048 | 73 | 304 | 0.0 | 2.0 | 0.00 | 0.00 | 0.00 | 89 | 1007.4 |
| 20260906002954 | 73 | 289 | 1.0 | 1.0 | 0.00 | 0.00 | 0.00 | 90 | 1007.4 |
| 20260906002543 | 73 | 289 | 1.0 | 1.0 | 0.00 | 0.00 | 0.00 | 90 | 1007.4 |
| 20260906002438 | 73 | 319 | 1.0 | 3.0 | 0.00 | 0.00 | 0.00 | 92 | 1007.4 |
| 20260906002038 | 73 | 319 | 1.0 | 3.0 | 0.00 | 0.00 | 0.00 | 92 | 1007.4 |
| 20260906001938 | 73 | 319 | 2.0 | 2.0 | 0.00 | 0.00 | 0.00 | 92 | 1007.5 |
| 20260906001533 | 73 | 319 | 2.0 | 2.0 | 0.00 | 0.00 | 0.00 | 92 | 1007.5 |
| 20260906001437 | 73 | 297 | 0.0 | 2.0 | 0.00 | 0.00 | 0.00 | 91 | 1007.4 |
| 20260906001027 | 73 | 297 | 0.0 | 2.0 | 0.00 | 0.00 | 0.00 | 91 | 1007.4 |
| 20260906000932 | 74 | 290 | 0.0 | 2.0 | 0.00 | 0.00 | 0.00 | 91 | 1007.3 |
| 20260906000524 | 74 | 290 | 0.0 | 2.0 | 0.00 | 0.00 | 0.00 | 91 | 1007.3 |
| 20260906000018 | 74 | 262 | 1.0 | 2.0 | 0.00 | 0.00 | 0.00 | 90 | 1007.4 |
| 20260905235512 | 74 | 308 | 0.0 | 2.0 | 0.00 | 0.00 | 0.00 | 91 | 1007.6 |
| 20260905235416 | 74 | 212 | 0.0 | 1.0 | 0.00 | 0.00 | 0.00 | 90 | 1007.6 |
| 20260905235007 | 74 | 212 | 0.0 | 1.0 | 0.00 | 0.00 | 0.00 | 90 | 1007.6 |
| 20260905234910 | 75 | 261 | 0.0 | 2.0 | 0.00 | 0.00 | 0.00 | 90 | 1007.5 |
| 20260905234502 | 75 | 261 | 0.0 | 2.0 | 0.00 | 0.00 | 0.00 | 90 | 1007.5 |
| 20260905233956 | 74 | 276 | 1.0 | 2.0 | 0.00 | 0.00 | 0.00 | 91 | 1007.3 |
| 20260905233859 | 74 | 208 | 0.0 | 1.0 | 0.00 | 0.00 | 0.00 | 90 | 1007.4 |
| 20260905233452 | 74 | 208 | 0.0 | 1.0 | 0.00 | 0.00 | 0.00 | 90 | 1007.4 |
| 20260905232950 | 74 | 239 | 1.0 | 2.0 | 0.00 | 0.00 | 0.00 | 90 | 1007.3 |
| 20260905232858 | 75 | 249 | 0.0 | 2.0 | 0.00 | 0.00 | 0.00 | 90 | 1007.3 |
| 20260905232447 | 75 | 249 | 0.0 | 2.0 | 0.00 | 0.00 | 0.00 | 90 | 1007.3 |
| 20260905232353 | 75 | 243 | 0.0 | 1.0 | 0.00 | 0.00 | 0.00 | 89 | 1007.7 |
| 20260905231943 | 75 | 243 | 0.0 | 1.0 | 0.00 | 0.00 | 0.00 | 89 | 1007.7 |
| 20260905231438 | 75 | 242 | 0.0 | 1.0 | 0.00 | 0.00 | 0.00 | 87 | 1007.6 |
| 20260905231342 | 75 | 269 | 0.0 | 1.0 | 0.00 | 0.00 | 0.00 | 86 | 1007.5 |
| 20260905230935 | 75 | 269 | 0.0 | 1.0 | 0.00 | 0.00 | 0.00 | 86 | 1007.5 |
| 20260905230433 | 75 | 255 | 0.0 | 0.0 | 0.00 | 0.00 | 0.00 | 86 | 1007.3 |
| 20260905230336 | 75 | 190 | 0.0 | 1.0 | 0.00 | 0.00 | 0.00 | 86 | 1007.5 |
| 20260905225931 | 75 | 190 | 0.0 | 1.0 | 0.00 | 0.00 | 0.00 | 86 | 1007.5 |
| 20260905225427 | 75 | 237 | 0.0 | 2.0 | 0.00 | 0.00 | 0.00 | 86 | 1007.3 |
| 20260905225330 | 76 | 271 | 1.0 | 2.0 | 0.00 | 0.00 | 0.00 | 86 | 1007.2 |
| 20260905224921 | 76 | 271 | 1.0 | 2.0 | 0.00 | 0.00 | 0.00 | 86 | 1007.2 |
| 20260905224418 | 76 | 142 | 0.0 | 0.0 | 0.00 | 0.00 | 0.00 | 84 | 1007.2 |
| 20260905223917 | 77 | 164 | 0.0 | 1.0 | 0.00 | 0.00 | 0.00 | 83 | 1007.0 |
| 20260905223415 | 77 | 279 | 0.0 | 1.0 | 0.00 | 0.00 | 0.00 | 82 | 1007.2 |
| 20260905222915 | 77 | 50 | 0.0 | 0.0 | 0.00 | 0.00 | 0.00 | 80 | 1007.0 |
| 20260905222414 | 77 | 329 | 0.0 | 1.0 | 0.00 | 0.00 | 0.00 | 79 | 1006.8 |
| 20260905221910 | 77 | 328 | 0.0 | 0.0 | 0.00 | 0.00 | 0.00 | 81 | 1007.0 |
| 20260905221816 | 77 | 232 | 0.0 | 1.0 | 0.00 | 0.00 | 0.00 | 82 | 1006.9 |
| 20260905221407 | 77 | 232 | 0.0 | 1.0 | 0.00 | 0.00 | 0.00 | 82 | 1006.9 |
| 20260905220902 | 77 | 0 | 0.0 | 1.0 | 0.00 | 0.00 | 0.00 | 80 | 1006.9 |
| 20260905220805 | 78 | 217 | 0.0 | 0.0 | 0.00 | 0.00 | 0.00 | 80 | 1006.9 |
| 20260905220358 | 78 | 217 | 0.0 | 0.0 | 0.00 | 0.00 | 0.00 | 80 | 1006.9 |
| 20260905215857 | 78 | 235 | 1.0 | 1.0 | 0.00 | 0.00 | 0.00 | 79 | 1006.8 |
| 20260905215804 | 78 | 219 | 1.0 | 2.0 | 0.00 | 0.00 | 0.00 | 78 | 1007.1 |
| 20260905215353 | 78 | 219 | 1.0 | 2.0 | 0.00 | 0.00 | 0.00 | 78 | 1007.1 |
| 20260905214849 | 78 | 269 | 0.0 | 1.0 | 0.00 | 0.00 | 0.00 | 81 | 1007.0 |
| 20260905214344 | 78 | 287 | 0.0 | 1.0 | 0.00 | 0.00 | 0.00 | 78 | 1006.9 |
| 20260905213839 | 78 | 257 | 0.0 | 1.0 | 0.00 | 0.00 | 0.00 | 77 | 1006.8 |
| 20260905213742 | 78 | 19 | 0.0 | 1.0 | 0.00 | 0.00 | 0.00 | 76 | 1006.9 |
| 20260905213335 | 78 | 19 | 0.0 | 1.0 | 0.00 | 0.00 | 0.00 | 76 | 1006.9 |
| 20260905213241 | 78 | 0 | 1.0 | 2.0 | 0.00 | 0.00 | 0.00 | 76 | 1007.3 |
| 20260905212830 | 78 | 0 | 1.0 | 2.0 | 0.00 | 0.00 | 0.00 | 76 | 1007.3 |
| 20260905212330 | 78 | 265 | 0.0 | 3.0 | 0.00 | 0.00 | 0.00 | 76 | 1006.9 |
| 20260905212236 | 79 | 312 | 0.0 | 1.0 | 0.00 | 0.00 | 0.00 | 75 | 1006.9 |
| 20260905211824 | 79 | 312 | 0.0 | 1.0 | 0.00 | 0.00 | 0.00 | 75 | 1006.9 |
| 20260905211320 | 78 | 261 | 1.0 | 2.0 | 0.00 | 0.00 | 0.00 | 75 | 1007.0 |
| 20260905210817 | 78 | 304 | 1.0 | 2.0 | 0.00 | 0.00 | 0.00 | 76 | 1006.8 |
| 20260905210724 | 79 | 2 | 1.0 | 4.0 | 0.00 | 0.00 | 0.00 | 75 | 1006.7 |
| 20260905210316 | 79 | 2 | 1.0 | 4.0 | 0.00 | 0.00 | 0.00 | 75 | 1006.7 |
| 20260905205815 | 79 | 6 | 0.0 | 1.0 | 0.00 | 0.00 | 0.00 | 75 | 1006.7 |
| 20260905205310 | 80 | 278 | 2.0 | 3.0 | 0.00 | 0.00 | 0.00 | 73 | 1006.8 |
| 20260905205218 | 81 | 94 | 0.0 | 3.0 | 0.00 | 0.00 | 0.00 | 71 | 1006.7 |
| 20260905204809 | 81 | 94 | 0.0 | 3.0 | 0.00 | 0.00 | 0.00 | 71 | 1006.7 |
| 20260905204712 | 82 | 336 | 1.0 | 5.0 | 0.00 | 0.00 | 0.00 | 68 | 1006.2 |
| 20260905204305 | 82 | 336 | 1.0 | 5.0 | 0.00 | 0.00 | 0.00 | 68 | 1006.2 |
| 20260905203804 | 82 | 352 | 2.0 | 4.0 | 0.00 | 0.00 | 0.00 | 66 | 1006.4 |
| 20260905203300 | 82 | 328 | 3.0 | 4.0 | 0.00 | 0.00 | 0.00 | 67 | 1006.5 |
| 20260905203026 | 80 | 188 | 0.0 | 2.0 | 0.00 | 0.00 | 0.00 | 69 | 1006.7 |
| 20260905202755 | 81 | 307 | 0.0 | 3.0 | 0.00 | 0.00 | 0.00 | 68 | 1006.5 |
| 20260905202250 | 81 | 285 | 3.0 | 3.0 | 0.00 | 0.00 | 0.00 | 67 | 1006.6 |
| 20260905201746 | 82 | 242 | 0.0 | 4.0 | 0.00 | 0.00 | 0.00 | 69 | 1006.4 |
| 20260905201241 | 82 | 318 | 1.0 | 5.0 | 0.00 | 0.00 | 0.00 | 67 | 1006.5 |
| 20260905200736 | 80 | 188 | 0.0 | 2.0 | 0.00 | 0.00 | 0.00 | 69 | 1006.7 |
| 20260905200652 | 78 | 274 | 0.0 | 2.0 | 0.00 | 0.00 | 0.00 | 73 | 1006.7 |
| 20260905200232 | 78 | 274 | 0.0 | 2.0 | 0.00 | 0.00 | 0.00 | 73 | 1006.7 |
| 20260905195729 | 80 | 291 | 3.0 | 5.0 | 0.00 | 0.00 | 0.00 | 71 | 1006.6 |
| 20260905195224 | 80 | 12 | 1.0 | 4.0 | 0.00 | 0.00 | 0.00 | 71 | 1006.7 |
| 20260905194720 | 79 | 338 | 1.0 | 2.0 | 0.00 | 0.00 | 0.00 | 72 | 1006.6 |
| 20260905194631 | 79 | 126 | 0.0 | 2.0 | 0.00 | 0.00 | 0.00 | 75 | 1006.8 |
| 20260905194219 | 79 | 126 | 0.0 | 2.0 | 0.00 | 0.00 | 0.00 | 75 | 1006.8 |
| 20260905193713 | 79 | 294 | 1.0 | 2.0 | 0.00 | 0.00 | 0.00 | 75 | 1006.6 |
| 20260905193209 | 79 | 1 | 1.0 | 3.0 | 0.00 | 0.00 | 0.00 | 74 | 1006.8 |
| 20260905192704 | 79 | 312 | 3.0 | 4.0 | 0.00 | 0.00 | 0.00 | 74 | 1006.6 |
| 20260905192201 | 79 | 260 | 1.0 | 3.0 | 0.00 | 0.00 | 0.00 | 75 | 1006.6 |
| 20260905191700 | 79 | 333 | 2.0 | 5.0 | 0.00 | 0.00 | 0.00 | 73 | 1006.8 |
| 20260905191158 | 80 | 303 | 3.0 | 5.0 | 0.00 | 0.00 | 0.00 | 75 | 1006.5 |
| 20260905191118 | 79 | 319 | 3.0 | 4.0 | 0.00 | 0.00 | 0.00 | 76 | 1006.5 |
| 20260905190657 | 79 | 319 | 3.0 | 4.0 | 0.00 | 0.00 | 0.00 | 76 | 1006.5 |
| 20260905190156 | 78 | 283 | 2.0 | 3.0 | 0.00 | 0.00 | 0.00 | 79 | 1006.5 |
| 20260905185655 | 78 | 264 | 2.0 | 2.0 | 0.00 | 0.00 | 0.00 | 80 | 1006.3 |
| 20260905185150 | 78 | 197 | 0.0 | 3.0 | 0.00 | 0.00 | 0.00 | 80 | 1006.2 |
| 20260905184649 | 77 | 247 | 0.0 | 2.0 | 0.00 | 0.00 | 0.00 | 80 | 1006.1 |
| 20260905184148 | 77 | 298 | 1.0 | 1.0 | 0.00 | 0.00 | 0.00 | 82 | 1006.2 |
| 20260905183642 | 77 | 108 | 1.0 | 1.0 | 0.00 | 0.00 | 0.00 | 82 | 1006.4 |
| 20260905183137 | 78 | 76 | 2.0 | 2.0 | 0.00 | 0.00 | 0.00 | 84 | 1006.6 |
| 20260905182636 | 78 | 258 | 0.0 | 2.0 | 0.00 | 0.00 | 0.00 | 83 | 1007.1 |
| 20260905182540 | 78 | 122 | 0.0 | 3.0 | 0.00 | 0.00 | 0.00 | 83 | 1007.2 |
| 20260905182131 | 78 | 122 | 0.0 | 3.0 | 0.00 | 0.00 | 0.00 | 83 | 1007.2 |
| 20260905181626 | 77 | 335 | 0.0 | 1.0 | 0.00 | 0.00 | 0.00 | 82 | 1007.4 |
| 20260905181125 | 78 | 55 | 0.0 | 1.0 | 0.00 | 0.00 | 0.00 | 81 | 1007.5 |
| 20260905180620 | 78 | 257 | 0.0 | 1.0 | 0.00 | 0.00 | 0.00 | 82 | 1007.9 |
| 20260905180116 | 78 | 269 | 2.0 | 2.0 | 0.00 | 0.00 | 0.00 | 82 | 1008.1 |
| 20260905175615 | 78 | 279 | 0.0 | 2.0 | 0.00 | 0.00 | 0.00 | 85 | 1008.2 |
| 20260905175110 | 78 | 249 | 1.0 | 2.0 | 0.00 | 0.00 | 0.00 | 83 | 1008.4 |
| 20260905175016 | 79 | 290 | 1.0 | 3.0 | 0.00 | 0.00 | 0.00 | 81 | 1008.4 |
| 20260905174605 | 79 | 290 | 1.0 | 3.0 | 0.00 | 0.00 | 0.00 | 81 | 1008.4 |
| 20260905174511 | 79 | 266 | 0.0 | 1.0 | 0.00 | 0.00 | 0.00 | 81 | 1008.4 |